sensor_id;sensor_type;location;lat;lon;timestamp;P1;durP1;ratioP1;P2;durP2;ratioP2
39918;SDS011;25589;51.552;13.424;2023-04-16T00:00:30;9.27;;;7.13;;
39918;SDS011;25589;51.552;13.424;2023-04-16T00:02:55;11.10;;;8.52;;
39918;SDS011;25589;51.552;13.424;2023-04-16T00:05:21;10.80;;;8.82;;
39918;SDS011;25589;51.552;13.424;2023-04-16T00:07:46;11.60;;;8.23;;
39918;SDS011;25589;51.552;13.424;2023-04-16T00:10:12;12.27;;;8.45;;
39918;SDS011;25589;51.552;13.424;2023-04-16T00:12:38;13.93;;;9.63;;
39918;SDS011;25589;51.552;13.424;2023-04-16T00:15:04;12.93;;;9.00;;
39918;SDS011;25589;51.552;13.424;2023-04-16T00:17:30;13.63;;;8.98;;
39918;SDS011;25589;51.552;13.424;2023-04-16T00:19:55;11.57;;;8.48;;
39918;SDS011;25589;51.552;13.424;2023-04-16T00:22:21;12.52;;;8.52;;
39918;SDS011;25589;51.552;13.424;2023-04-16T00:24:46;10.10;;;8.07;;
39918;SDS011;25589;51.552;13.424;2023-04-16T00:27:12;45.42;;;10.70;;
39918;SDS011;25589;51.552;13.424;2023-04-16T00:29:37;14.23;;;9.20;;
39918;SDS011;25589;51.552;13.424;2023-04-16T00:32:03;16.33;;;9.65;;
39918;SDS011;25589;51.552;13.424;2023-04-16T00:34:29;24.85;;;9.90;;
39918;SDS011;25589;51.552;13.424;2023-04-16T00:36:55;13.32;;;9.10;;
39918;SDS011;25589;51.552;13.424;2023-04-16T00:39:21;15.35;;;10.15;;
39918;SDS011;25589;51.552;13.424;2023-04-16T00:41:46;18.50;;;9.25;;
39918;SDS011;25589;51.552;13.424;2023-04-16T00:44:13;19.95;;;10.43;;
39918;SDS011;25589;51.552;13.424;2023-04-16T00:46:39;19.08;;;10.65;;
39918;SDS011;25589;51.552;13.424;2023-04-16T00:49:05;18.65;;;11.35;;
39918;SDS011;25589;51.552;13.424;2023-04-16T00:51:31;14.48;;;10.30;;
39918;SDS011;25589;51.552;13.424;2023-04-16T00:53:59;17.33;;;10.45;;
39918;SDS011;25589;51.552;13.424;2023-04-16T00:56:25;18.45;;;10.50;;
39918;SDS011;25589;51.552;13.424;2023-04-16T00:58:50;14.07;;;10.10;;
39918;SDS011;25589;51.552;13.424;2023-04-16T01:01:16;14.95;;;10.40;;
39918;SDS011;25589;51.552;13.424;2023-04-16T01:03:42;15.05;;;10.88;;
39918;SDS011;25589;51.552;13.424;2023-04-16T01:06:10;15.02;;;10.25;;
39918;SDS011;25589;51.552;13.424;2023-04-16T01:08:36;13.77;;;10.30;;
39918;SDS011;25589;51.552;13.424;2023-04-16T01:11:02;15.57;;;10.30;;
39918;SDS011;25589;51.552;13.424;2023-04-16T01:13:28;15.93;;;10.77;;
39918;SDS011;25589;51.552;13.424;2023-04-16T01:15:54;17.88;;;9.98;;
39918;SDS011;25589;51.552;13.424;2023-04-16T01:18:20;16.92;;;10.68;;
39918;SDS011;25589;51.552;13.424;2023-04-16T01:20:48;19.58;;;11.18;;
39918;SDS011;25589;51.552;13.424;2023-04-16T01:23:14;16.02;;;10.90;;
39918;SDS011;25589;51.552;13.424;2023-04-16T01:25:40;16.35;;;10.50;;
39918;SDS011;25589;51.552;13.424;2023-04-16T01:28:06;17.45;;;12.00;;
39918;SDS011;25589;51.552;13.424;2023-04-16T01:30:32;14.52;;;9.95;;
39918;SDS011;25589;51.552;13.424;2023-04-16T01:33:12;14.98;;;10.48;;
39918;SDS011;25589;51.552;13.424;2023-04-16T01:35:39;16.90;;;10.50;;
39918;SDS011;25589;51.552;13.424;2023-04-16T01:38:06;16.27;;;10.32;;
39918;SDS011;25589;51.552;13.424;2023-04-16T01:40:33;20.95;;;10.93;;
39918;SDS011;25589;51.552;13.424;2023-04-16T01:43:00;15.98;;;10.13;;
39918;SDS011;25589;51.552;13.424;2023-04-16T01:45:25;16.17;;;9.75;;
39918;SDS011;25589;51.552;13.424;2023-04-16T01:47:51;15.40;;;9.85;;
39918;SDS011;25589;51.552;13.424;2023-04-16T01:50:18;14.13;;;9.15;;
39918;SDS011;25589;51.552;13.424;2023-04-16T01:52:44;15.30;;;9.77;;
39918;SDS011;25589;51.552;13.424;2023-04-16T01:55:10;17.83;;;10.18;;
39918;SDS011;25589;51.552;13.424;2023-04-16T01:57:36;16.85;;;10.82;;
39918;SDS011;25589;51.552;13.424;2023-04-16T02:00:02;16.67;;;10.38;;
39918;SDS011;25589;51.552;13.424;2023-04-16T02:02:29;18.40;;;11.07;;
39918;SDS011;25589;51.552;13.424;2023-04-16T02:04:55;18.60;;;11.45;;
39918;SDS011;25589;51.552;13.424;2023-04-16T02:07:21;23.13;;;11.57;;
39918;SDS011;25589;51.552;13.424;2023-04-16T02:09:48;20.15;;;11.73;;
39918;SDS011;25589;51.552;13.424;2023-04-16T02:12:16;21.92;;;10.77;;
39918;SDS011;25589;51.552;13.424;2023-04-16T02:14:42;19.17;;;11.15;;
39918;SDS011;25589;51.552;13.424;2023-04-16T02:17:09;21.98;;;11.32;;
39918;SDS011;25589;51.552;13.424;2023-04-16T02:19:36;25.38;;;13.20;;
39918;SDS011;25589;51.552;13.424;2023-04-16T02:22:02;21.52;;;12.00;;
39918;SDS011;25589;51.552;13.424;2023-04-16T02:24:27;20.85;;;12.10;;
39918;SDS011;25589;51.552;13.424;2023-04-16T02:26:54;22.15;;;12.05;;
39918;SDS011;25589;51.552;13.424;2023-04-16T02:29:21;18.23;;;11.70;;
39918;SDS011;25589;51.552;13.424;2023-04-16T02:31:53;19.70;;;11.10;;
39918;SDS011;25589;51.552;13.424;2023-04-16T02:34:19;20.17;;;12.07;;
39918;SDS011;25589;51.552;13.424;2023-04-16T02:36:45;20.30;;;12.10;;
39918;SDS011;25589;51.552;13.424;2023-04-16T02:39:10;18.50;;;11.77;;
39918;SDS011;25589;51.552;13.424;2023-04-16T02:41:36;19.63;;;11.80;;
39918;SDS011;25589;51.552;13.424;2023-04-16T02:44:02;20.52;;;11.38;;
39918;SDS011;25589;51.552;13.424;2023-04-16T02:46:28;18.02;;;11.93;;
39918;SDS011;25589;51.552;13.424;2023-04-16T02:48:53;19.60;;;11.27;;
39918;SDS011;25589;51.552;13.424;2023-04-16T02:51:19;16.90;;;10.82;;
39918;SDS011;25589;51.552;13.424;2023-04-16T02:53:45;21.58;;;11.88;;
39918;SDS011;25589;51.552;13.424;2023-04-16T02:56:11;16.08;;;10.48;;
39918;SDS011;25589;51.552;13.424;2023-04-16T02:58:37;20.45;;;12.68;;
39918;SDS011;25589;51.552;13.424;2023-04-16T03:01:03;18.30;;;11.95;;
39918;SDS011;25589;51.552;13.424;2023-04-16T03:03:28;17.77;;;11.65;;
39918;SDS011;25589;51.552;13.424;2023-04-16T03:05:54;21.70;;;13.32;;
39918;SDS011;25589;51.552;13.424;2023-04-16T03:08:20;20.38;;;11.90;;
39918;SDS011;25589;51.552;13.424;2023-04-16T03:10:45;21.40;;;13.02;;
39918;SDS011;25589;51.552;13.424;2023-04-16T03:13:12;20.95;;;12.32;;
39918;SDS011;25589;51.552;13.424;2023-04-16T03:15:38;19.65;;;12.35;;
39918;SDS011;25589;51.552;13.424;2023-04-16T03:18:04;19.35;;;11.18;;
39918;SDS011;25589;51.552;13.424;2023-04-16T03:20:30;17.65;;;11.40;;
39918;SDS011;25589;51.552;13.424;2023-04-16T03:22:55;17.25;;;11.40;;
39918;SDS011;25589;51.552;13.424;2023-04-16T03:25:21;18.95;;;12.05;;
39918;SDS011;25589;51.552;13.424;2023-04-16T03:27:47;20.60;;;12.73;;
39918;SDS011;25589;51.552;13.424;2023-04-16T03:30:14;16.85;;;11.73;;
39918;SDS011;25589;51.552;13.424;2023-04-16T03:32:41;18.83;;;12.02;;
39918;SDS011;25589;51.552;13.424;2023-04-16T03:35:07;19.02;;;12.57;;
39918;SDS011;25589;51.552;13.424;2023-04-16T03:37:33;23.13;;;12.25;;
39918;SDS011;25589;51.552;13.424;2023-04-16T03:39:59;17.63;;;11.77;;
39918;SDS011;25589;51.552;13.424;2023-04-16T03:42:25;19.92;;;12.20;;
39918;SDS011;25589;51.552;13.424;2023-04-16T03:44:51;18.23;;;10.95;;
39918;SDS011;25589;51.552;13.424;2023-04-16T03:47:18;17.52;;;10.95;;
39918;SDS011;25589;51.552;13.424;2023-04-16T03:49:46;17.90;;;12.30;;
39918;SDS011;25589;51.552;13.424;2023-04-16T03:52:11;15.30;;;11.10;;
39918;SDS011;25589;51.552;13.424;2023-04-16T03:54:38;26.70;;;11.50;;
39918;SDS011;25589;51.552;13.424;2023-04-16T03:57:15;17.20;;;11.48;;
39918;SDS011;25589;51.552;13.424;2023-04-16T03:59:40;16.42;;;11.82;;
39918;SDS011;25589;51.552;13.424;2023-04-16T04:02:06;16.67;;;11.70;;
39918;SDS011;25589;51.552;13.424;2023-04-16T04:04:32;15.13;;;10.88;;
39918;SDS011;25589;51.552;13.424;2023-04-16T04:06:57;19.65;;;12.50;;
39918;SDS011;25589;51.552;13.424;2023-04-16T04:09:24;23.92;;;12.40;;
39918;SDS011;25589;51.552;13.424;2023-04-16T04:11:51;20.52;;;12.38;;
39918;SDS011;25589;51.552;13.424;2023-04-16T04:14:18;22.45;;;11.30;;
39918;SDS011;25589;51.552;13.424;2023-04-16T04:16:43;20.15;;;12.63;;
39918;SDS011;25589;51.552;13.424;2023-04-16T04:19:09;20.05;;;12.75;;
39918;SDS011;25589;51.552;13.424;2023-04-16T04:21:34;18.67;;;12.77;;
39918;SDS011;25589;51.552;13.424;2023-04-16T04:24:01;25.40;;;13.13;;
39918;SDS011;25589;51.552;13.424;2023-04-16T04:26:28;27.85;;;14.45;;
39918;SDS011;25589;51.552;13.424;2023-04-16T04:28:55;28.88;;;13.10;;
39918;SDS011;25589;51.552;13.424;2023-04-16T04:31:20;23.17;;;14.30;;
39918;SDS011;25589;51.552;13.424;2023-04-16T04:33:46;24.35;;;14.52;;
39918;SDS011;25589;51.552;13.424;2023-04-16T04:36:11;22.75;;;13.57;;
39918;SDS011;25589;51.552;13.424;2023-04-16T04:38:37;18.23;;;12.63;;
39918;SDS011;25589;51.552;13.424;2023-04-16T04:41:02;18.25;;;12.30;;
39918;SDS011;25589;51.552;13.424;2023-04-16T04:43:32;21.67;;;12.05;;
39918;SDS011;25589;51.552;13.424;2023-04-16T04:45:58;16.30;;;11.55;;
39918;SDS011;25589;51.552;13.424;2023-04-16T04:48:26;18.33;;;12.30;;
39918;SDS011;25589;51.552;13.424;2023-04-16T04:50:53;27.52;;;13.85;;
39918;SDS011;25589;51.552;13.424;2023-04-16T04:53:18;20.52;;;13.10;;
39918;SDS011;25589;51.552;13.424;2023-04-16T04:55:44;24.63;;;13.02;;
39918;SDS011;25589;51.552;13.424;2023-04-16T04:58:10;23.85;;;13.02;;
39918;SDS011;25589;51.552;13.424;2023-04-16T05:00:36;20.65;;;11.65;;
39918;SDS011;25589;51.552;13.424;2023-04-16T05:03:02;20.70;;;12.63;;
39918;SDS011;25589;51.552;13.424;2023-04-16T05:05:30;24.50;;;14.20;;
39918;SDS011;25589;51.552;13.424;2023-04-16T05:07:56;20.63;;;13.07;;
39918;SDS011;25589;51.552;13.424;2023-04-16T05:10:21;21.48;;;13.07;;
39918;SDS011;25589;51.552;13.424;2023-04-16T05:12:47;23.70;;;13.25;;
39918;SDS011;25589;51.552;13.424;2023-04-16T05:15:13;25.08;;;13.05;;
39918;SDS011;25589;51.552;13.424;2023-04-16T05:17:39;23.40;;;12.10;;
39918;SDS011;25589;51.552;13.424;2023-04-16T05:20:05;27.15;;;14.38;;
39918;SDS011;25589;51.552;13.424;2023-04-16T05:22:32;21.40;;;14.32;;
39918;SDS011;25589;51.552;13.424;2023-04-16T05:24:57;35.15;;;18.98;;
39918;SDS011;25589;51.552;13.424;2023-04-16T05:27:23;37.20;;;21.25;;
39918;SDS011;25589;51.552;13.424;2023-04-16T05:29:48;31.52;;;19.40;;
39918;SDS011;25589;51.552;13.424;2023-04-16T05:32:14;26.75;;;18.25;;
39918;SDS011;25589;51.552;13.424;2023-04-16T05:34:40;32.03;;;19.95;;
39918;SDS011;25589;51.552;13.424;2023-04-16T05:37:05;29.88;;;20.27;;
39918;SDS011;25589;51.552;13.424;2023-04-16T05:39:31;21.67;;;16.05;;
39918;SDS011;25589;51.552;13.424;2023-04-16T05:41:56;19.70;;;13.50;;
39918;SDS011;25589;51.552;13.424;2023-04-16T05:44:22;16.00;;;11.27;;
39918;SDS011;25589;51.552;13.424;2023-04-16T05:46:47;15.15;;;10.98;;
39918;SDS011;25589;51.552;13.424;2023-04-16T05:49:13;20.10;;;12.27;;
39918;SDS011;25589;51.552;13.424;2023-04-16T05:51:39;19.08;;;12.88;;
39918;SDS011;25589;51.552;13.424;2023-04-16T05:54:05;22.48;;;13.57;;
39918;SDS011;25589;51.552;13.424;2023-04-16T05:56:30;23.70;;;14.45;;
39918;SDS011;25589;51.552;13.424;2023-04-16T05:58:56;22.33;;;13.80;;
39918;SDS011;25589;51.552;13.424;2023-04-16T06:01:22;21.30;;;13.05;;
39918;SDS011;25589;51.552;13.424;2023-04-16T06:03:47;25.95;;;16.40;;
39918;SDS011;25589;51.552;13.424;2023-04-16T06:06:13;27.40;;;17.00;;
39918;SDS011;25589;51.552;13.424;2023-04-16T06:08:38;27.98;;;18.15;;
39918;SDS011;25589;51.552;13.424;2023-04-16T06:11:04;27.15;;;18.40;;
39918;SDS011;25589;51.552;13.424;2023-04-16T06:13:29;29.70;;;20.20;;
39918;SDS011;25589;51.552;13.424;2023-04-16T06:15:55;36.72;;;20.48;;
39918;SDS011;25589;51.552;13.424;2023-04-16T06:18:21;30.65;;;17.45;;
39918;SDS011;25589;51.552;13.424;2023-04-16T06:20:46;24.65;;;16.55;;
39918;SDS011;25589;51.552;13.424;2023-04-16T06:23:12;20.95;;;13.60;;
39918;SDS011;25589;51.552;13.424;2023-04-16T06:25:37;19.70;;;13.75;;
39918;SDS011;25589;51.552;13.424;2023-04-16T06:28:03;16.92;;;12.65;;
39918;SDS011;25589;51.552;13.424;2023-04-16T06:30:28;19.40;;;12.55;;
39918;SDS011;25589;51.552;13.424;2023-04-16T06:32:54;16.98;;;12.70;;
39918;SDS011;25589;51.552;13.424;2023-04-16T06:35:20;16.80;;;12.27;;
39918;SDS011;25589;51.552;13.424;2023-04-16T06:37:45;17.27;;;11.60;;
39918;SDS011;25589;51.552;13.424;2023-04-16T06:40:11;16.23;;;12.43;;
39918;SDS011;25589;51.552;13.424;2023-04-16T06:42:37;17.98;;;12.50;;
39918;SDS011;25589;51.552;13.424;2023-04-16T06:45:02;19.15;;;14.25;;
39918;SDS011;25589;51.552;13.424;2023-04-16T06:47:28;18.65;;;13.20;;
39918;SDS011;25589;51.552;13.424;2023-04-16T06:49:54;16.70;;;13.13;;
39918;SDS011;25589;51.552;13.424;2023-04-16T06:52:19;17.27;;;13.25;;
39918;SDS011;25589;51.552;13.424;2023-04-16T06:54:46;18.08;;;13.02;;
39918;SDS011;25589;51.552;13.424;2023-04-16T06:57:12;17.13;;;12.98;;
39918;SDS011;25589;51.552;13.424;2023-04-16T06:59:38;15.82;;;12.43;;
39918;SDS011;25589;51.552;13.424;2023-04-16T07:02:03;17.23;;;11.93;;
39918;SDS011;25589;51.552;13.424;2023-04-16T07:04:29;18.38;;;13.38;;
39918;SDS011;25589;51.552;13.424;2023-04-16T07:06:54;16.52;;;12.38;;
39918;SDS011;25589;51.552;13.424;2023-04-16T07:09:20;19.13;;;12.88;;
39918;SDS011;25589;51.552;13.424;2023-04-16T07:11:46;15.10;;;11.25;;
39918;SDS011;25589;51.552;13.424;2023-04-16T07:14:11;16.42;;;13.25;;
39918;SDS011;25589;51.552;13.424;2023-04-16T07:16:37;17.58;;;13.32;;
39918;SDS011;25589;51.552;13.424;2023-04-16T07:19:02;17.70;;;12.52;;
39918;SDS011;25589;51.552;13.424;2023-04-16T07:21:28;15.45;;;11.68;;
39918;SDS011;25589;51.552;13.424;2023-04-16T07:23:54;15.70;;;11.57;;
39918;SDS011;25589;51.552;13.424;2023-04-16T07:26:19;16.15;;;11.90;;
39918;SDS011;25589;51.552;13.424;2023-04-16T07:28:45;15.25;;;10.82;;
39918;SDS011;25589;51.552;13.424;2023-04-16T07:31:10;14.93;;;11.27;;
39918;SDS011;25589;51.552;13.424;2023-04-16T07:33:36;16.20;;;11.70;;
39918;SDS011;25589;51.552;13.424;2023-04-16T07:36:01;14.20;;;10.98;;
39918;SDS011;25589;51.552;13.424;2023-04-16T07:38:27;10.38;;;8.40;;
39918;SDS011;25589;51.552;13.424;2023-04-16T07:40:53;12.65;;;8.60;;
39918;SDS011;25589;51.552;13.424;2023-04-16T07:43:19;12.77;;;9.20;;
39918;SDS011;25589;51.552;13.424;2023-04-16T07:45:45;11.10;;;9.10;;
39918;SDS011;25589;51.552;13.424;2023-04-16T07:48:10;11.18;;;9.13;;
39918;SDS011;25589;51.552;13.424;2023-04-16T07:50:36;12.27;;;9.18;;
39918;SDS011;25589;51.552;13.424;2023-04-16T07:53:01;9.63;;;8.50;;
39918;SDS011;25589;51.552;13.424;2023-04-16T07:55:27;11.90;;;9.85;;
39918;SDS011;25589;51.552;13.424;2023-04-16T07:57:53;11.90;;;9.18;;
39918;SDS011;25589;51.552;13.424;2023-04-16T08:00:19;11.32;;;8.43;;
39918;SDS011;25589;51.552;13.424;2023-04-16T08:02:44;8.93;;;7.45;;
39918;SDS011;25589;51.552;13.424;2023-04-16T08:05:10;9.27;;;7.60;;
39918;SDS011;25589;51.552;13.424;2023-04-16T08:07:36;10.10;;;8.35;;
39918;SDS011;25589;51.552;13.424;2023-04-16T08:10:02;9.52;;;7.55;;
39918;SDS011;25589;51.552;13.424;2023-04-16T08:12:29;9.73;;;6.68;;
39918;SDS011;25589;51.552;13.424;2023-04-16T08:14:55;15.10;;;7.03;;
39918;SDS011;25589;51.552;13.424;2023-04-16T08:17:20;8.00;;;6.18;;
39918;SDS011;25589;51.552;13.424;2023-04-16T08:19:46;7.20;;;5.20;;
39918;SDS011;25589;51.552;13.424;2023-04-16T08:22:12;7.10;;;5.28;;
39918;SDS011;25589;51.552;13.424;2023-04-16T08:24:38;8.48;;;5.07;;
39918;SDS011;25589;51.552;13.424;2023-04-16T08:27:03;6.80;;;5.63;;
39918;SDS011;25589;51.552;13.424;2023-04-16T08:29:29;6.32;;;5.20;;
39918;SDS011;25589;51.552;13.424;2023-04-16T08:31:55;8.40;;;6.60;;
39918;SDS011;25589;51.552;13.424;2023-04-16T08:34:21;8.88;;;6.15;;
39918;SDS011;25589;51.552;13.424;2023-04-16T08:36:46;7.05;;;5.75;;
39918;SDS011;25589;51.552;13.424;2023-04-16T08:39:12;8.73;;;5.93;;
39918;SDS011;25589;51.552;13.424;2023-04-16T08:41:40;7.78;;;5.82;;
39918;SDS011;25589;51.552;13.424;2023-04-16T08:44:07;7.72;;;5.75;;
39918;SDS011;25589;51.552;13.424;2023-04-16T08:46:35;8.73;;;6.18;;
39918;SDS011;25589;51.552;13.424;2023-04-16T08:49:01;8.60;;;6.80;;
39918;SDS011;25589;51.552;13.424;2023-04-16T08:51:32;7.88;;;6.28;;
39918;SDS011;25589;51.552;13.424;2023-04-16T08:54:01;9.55;;;7.45;;
39918;SDS011;25589;51.552;13.424;2023-04-16T08:56:28;11.20;;;7.68;;
39918;SDS011;25589;51.552;13.424;2023-04-16T08:58:56;8.85;;;6.88;;
39918;SDS011;25589;51.552;13.424;2023-04-16T09:01:23;11.00;;;7.00;;
39918;SDS011;25589;51.552;13.424;2023-04-16T09:03:50;7.85;;;6.38;;
39918;SDS011;25589;51.552;13.424;2023-04-16T09:06:17;8.23;;;6.13;;
39918;SDS011;25589;51.552;13.424;2023-04-16T09:08:43;9.07;;;7.03;;
39918;SDS011;25589;51.552;13.424;2023-04-16T09:11:10;9.13;;;7.45;;
39918;SDS011;25589;51.552;13.424;2023-04-16T09:13:37;13.65;;;9.30;;
39918;SDS011;25589;51.552;13.424;2023-04-16T09:16:03;13.15;;;9.18;;
39918;SDS011;25589;51.552;13.424;2023-04-16T09:18:31;10.90;;;9.02;;
39918;SDS011;25589;51.552;13.424;2023-04-16T09:20:57;11.38;;;9.38;;
39918;SDS011;25589;51.552;13.424;2023-04-16T09:23:22;10.65;;;8.25;;
39918;SDS011;25589;51.552;13.424;2023-04-16T09:25:49;9.57;;;7.28;;
39918;SDS011;25589;51.552;13.424;2023-04-16T09:31:07;9.05;;;6.57;;
39918;SDS011;25589;51.552;13.424;2023-04-16T09:33:37;9.73;;;7.60;;
39918;SDS011;25589;51.552;13.424;2023-04-16T09:36:02;15.27;;;9.38;;
39918;SDS011;25589;51.552;13.424;2023-04-16T09:38:46;8.38;;;7.50;;
39918;SDS011;25589;51.552;13.424;2023-04-16T09:41:16;9.23;;;8.32;;
39918;SDS011;25589;51.552;13.424;2023-04-16T09:44:15;8.18;;;6.75;;
39918;SDS011;25589;51.552;13.424;2023-04-16T09:46:40;7.30;;;5.80;;
39918;SDS011;25589;51.552;13.424;2023-04-16T09:49:12;8.33;;;5.87;;
39918;SDS011;25589;51.552;13.424;2023-04-16T09:51:43;7.85;;;6.32;;
39918;SDS011;25589;51.552;13.424;2023-04-16T09:54:09;10.48;;;6.65;;
39918;SDS011;25589;51.552;13.424;2023-04-16T09:56:44;7.63;;;6.07;;
39918;SDS011;25589;51.552;13.424;2023-04-16T09:59:20;9.07;;;5.45;;
39918;SDS011;25589;51.552;13.424;2023-04-16T10:01:46;6.32;;;5.22;;
39918;SDS011;25589;51.552;13.424;2023-04-16T10:04:17;8.93;;;6.45;;
39918;SDS011;25589;51.552;13.424;2023-04-16T10:06:43;10.07;;;8.38;;
39918;SDS011;25589;51.552;13.424;2023-04-16T10:09:26;7.38;;;6.43;;
39918;SDS011;25589;51.552;13.424;2023-04-16T10:11:56;9.60;;;7.50;;
39918;SDS011;25589;51.552;13.424;2023-04-16T10:14:22;10.48;;;7.28;;
39918;SDS011;25589;51.552;13.424;2023-04-16T10:16:48;8.70;;;6.47;;
39918;SDS011;25589;51.552;13.424;2023-04-16T10:19:13;7.80;;;6.50;;
39918;SDS011;25589;51.552;13.424;2023-04-16T10:21:40;8.82;;;6.05;;
39918;SDS011;25589;51.552;13.424;2023-04-16T10:24:05;7.38;;;6.25;;
39918;SDS011;25589;51.552;13.424;2023-04-16T10:26:32;7.43;;;5.88;;
39918;SDS011;25589;51.552;13.424;2023-04-16T10:29:00;6.95;;;5.38;;
39918;SDS011;25589;51.552;13.424;2023-04-16T10:31:26;7.10;;;5.55;;
39918;SDS011;25589;51.552;13.424;2023-04-16T10:33:52;7.50;;;6.00;;
39918;SDS011;25589;51.552;13.424;2023-04-16T10:36:22;12.45;;;9.13;;
39918;SDS011;25589;51.552;13.424;2023-04-16T10:38:49;8.57;;;6.78;;
39918;SDS011;25589;51.552;13.424;2023-04-16T10:41:18;22.73;;;13.55;;
39918;SDS011;25589;51.552;13.424;2023-04-16T10:43:47;15.15;;;12.43;;
39918;SDS011;25589;51.552;13.424;2023-04-16T10:46:21;9.60;;;8.60;;
39918;SDS011;25589;51.552;13.424;2023-04-16T10:48:48;9.48;;;7.40;;
39918;SDS011;25589;51.552;13.424;2023-04-16T10:51:25;10.05;;;9.15;;
39918;SDS011;25589;51.552;13.424;2023-04-16T10:53:57;8.10;;;7.30;;
39918;SDS011;25589;51.552;13.424;2023-04-16T10:56:27;8.30;;;6.95;;
39918;SDS011;25589;51.552;13.424;2023-04-16T10:58:55;6.93;;;4.85;;
39918;SDS011;25589;51.552;13.424;2023-04-16T11:01:34;5.63;;;4.60;;
39918;SDS011;25589;51.552;13.424;2023-04-16T11:07:00;5.88;;;5.28;;
39918;SDS011;25589;51.552;13.424;2023-04-16T11:12:16;7.80;;;5.70;;
39918;SDS011;25589;51.552;13.424;2023-04-16T11:14:46;7.93;;;5.55;;
39918;SDS011;25589;51.552;13.424;2023-04-16T11:17:17;6.30;;;5.40;;
39918;SDS011;25589;51.552;13.424;2023-04-16T11:19:43;6.50;;;5.70;;
39918;SDS011;25589;51.552;13.424;2023-04-16T11:22:13;5.82;;;4.45;;
39918;SDS011;25589;51.552;13.424;2023-04-16T11:24:41;6.32;;;5.22;;
39918;SDS011;25589;51.552;13.424;2023-04-16T11:27:07;4.68;;;4.18;;
39918;SDS011;25589;51.552;13.424;2023-04-16T11:29:33;5.22;;;4.65;;
39918;SDS011;25589;51.552;13.424;2023-04-16T11:31:59;5.20;;;4.32;;
39918;SDS011;25589;51.552;13.424;2023-04-16T11:34:25;5.57;;;4.53;;
39918;SDS011;25589;51.552;13.424;2023-04-16T11:36:50;4.45;;;4.03;;
39918;SDS011;25589;51.552;13.424;2023-04-16T11:39:17;5.82;;;3.85;;
39918;SDS011;25589;51.552;13.424;2023-04-16T11:41:48;5.20;;;4.28;;
39918;SDS011;25589;51.552;13.424;2023-04-16T11:46:45;20.52;;;18.75;;
39918;SDS011;25589;51.552;13.424;2023-04-16T11:49:11;10.38;;;9.48;;
39918;SDS011;25589;51.552;13.424;2023-04-16T11:51:40;5.18;;;4.68;;
39918;SDS011;25589;51.552;13.424;2023-04-16T11:54:07;4.97;;;4.47;;
39918;SDS011;25589;51.552;13.424;2023-04-16T11:56:34;5.22;;;4.72;;
39918;SDS011;25589;51.552;13.424;2023-04-16T11:59:20;5.00;;;4.60;;
39918;SDS011;25589;51.552;13.424;2023-04-16T12:01:51;5.63;;;4.28;;
39918;SDS011;25589;51.552;13.424;2023-04-16T12:04:19;3.47;;;2.97;;
39918;SDS011;25589;51.552;13.424;2023-04-16T12:09:34;4.00;;;3.60;;
39918;SDS011;25589;51.552;13.424;2023-04-16T12:12:01;4.65;;;3.83;;
39918;SDS011;25589;51.552;13.424;2023-04-16T12:14:27;3.85;;;3.45;;
39918;SDS011;25589;51.552;13.424;2023-04-16T12:16:53;4.85;;;3.78;;
39918;SDS011;25589;51.552;13.424;2023-04-16T12:19:19;4.90;;;4.10;;
39918;SDS011;25589;51.552;13.424;2023-04-16T12:21:48;4.85;;;3.47;;
39918;SDS011;25589;51.552;13.424;2023-04-16T12:24:15;4.70;;;3.90;;
39918;SDS011;25589;51.552;13.424;2023-04-16T12:26:47;6.10;;;4.18;;
39918;SDS011;25589;51.552;13.424;2023-04-16T12:29:16;3.83;;;3.35;;
39918;SDS011;25589;51.552;13.424;2023-04-16T12:31:42;5.38;;;4.50;;
39918;SDS011;25589;51.552;13.424;2023-04-16T12:34:08;4.03;;;3.40;;
39918;SDS011;25589;51.552;13.424;2023-04-16T12:36:37;3.25;;;2.95;;
39918;SDS011;25589;51.552;13.424;2023-04-16T12:39:02;2.95;;;2.55;;
39918;SDS011;25589;51.552;13.424;2023-04-16T12:41:29;2.80;;;2.47;;
39918;SDS011;25589;51.552;13.424;2023-04-16T12:44:02;2.95;;;2.75;;
39918;SDS011;25589;51.552;13.424;2023-04-16T12:46:33;3.20;;;2.90;;
39918;SDS011;25589;51.552;13.424;2023-04-16T12:49:00;3.72;;;2.90;;
39918;SDS011;25589;51.552;13.424;2023-04-16T12:51:26;4.13;;;3.53;;
39918;SDS011;25589;51.552;13.424;2023-04-16T12:53:52;4.15;;;2.92;;
39918;SDS011;25589;51.552;13.424;2023-04-16T12:56:18;3.45;;;2.90;;
39918;SDS011;25589;51.552;13.424;2023-04-16T12:58:43;3.35;;;3.03;;
39918;SDS011;25589;51.552;13.424;2023-04-16T13:01:09;3.22;;;2.92;;
39918;SDS011;25589;51.552;13.424;2023-04-16T13:03:36;4.45;;;3.83;;
39918;SDS011;25589;51.552;13.424;2023-04-16T13:06:01;3.60;;;3.30;;
39918;SDS011;25589;51.552;13.424;2023-04-16T13:08:27;3.78;;;3.20;;
39918;SDS011;25589;51.552;13.424;2023-04-16T13:10:53;3.80;;;3.40;;
39918;SDS011;25589;51.552;13.424;2023-04-16T13:13:19;4.47;;;4.03;;
39918;SDS011;25589;51.552;13.424;2023-04-16T13:15:44;4.25;;;3.72;;
39918;SDS011;25589;51.552;13.424;2023-04-16T13:18:10;5.60;;;4.35;;
39918;SDS011;25589;51.552;13.424;2023-04-16T13:20:36;5.85;;;5.25;;
39918;SDS011;25589;51.552;13.424;2023-04-16T13:23:01;11.10;;;6.70;;
39918;SDS011;25589;51.552;13.424;2023-04-16T13:25:29;7.82;;;6.93;;
39918;SDS011;25589;51.552;13.424;2023-04-16T13:27:55;8.60;;;6.80;;
39918;SDS011;25589;51.552;13.424;2023-04-16T13:30:21;9.07;;;7.22;;
39918;SDS011;25589;51.552;13.424;2023-04-16T13:32:46;10.05;;;7.90;;
39918;SDS011;25589;51.552;13.424;2023-04-16T13:35:12;9.82;;;7.47;;
39918;SDS011;25589;51.552;13.424;2023-04-16T13:37:37;9.88;;;7.68;;
39918;SDS011;25589;51.552;13.424;2023-04-16T13:40:04;9.75;;;7.07;;
39918;SDS011;25589;51.552;13.424;2023-04-16T13:42:31;12.77;;;8.20;;
39918;SDS011;25589;51.552;13.424;2023-04-16T13:44:56;10.73;;;8.45;;
39918;SDS011;25589;51.552;13.424;2023-04-16T13:47:22;9.73;;;7.22;;
39918;SDS011;25589;51.552;13.424;2023-04-16T13:49:48;9.95;;;7.28;;
39918;SDS011;25589;51.552;13.424;2023-04-16T13:52:14;10.43;;;6.78;;
39918;SDS011;25589;51.552;13.424;2023-04-16T13:54:40;8.88;;;6.43;;
39918;SDS011;25589;51.552;13.424;2023-04-16T13:57:05;8.48;;;6.30;;
39918;SDS011;25589;51.552;13.424;2023-04-16T13:59:31;7.78;;;6.25;;
39918;SDS011;25589;51.552;13.424;2023-04-16T14:01:57;7.72;;;6.20;;
39918;SDS011;25589;51.552;13.424;2023-04-16T14:04:22;6.93;;;5.70;;
39918;SDS011;25589;51.552;13.424;2023-04-16T14:06:48;8.18;;;5.55;;
39918;SDS011;25589;51.552;13.424;2023-04-16T14:09:14;8.27;;;5.97;;
39918;SDS011;25589;51.552;13.424;2023-04-16T14:11:40;8.27;;;6.43;;
39918;SDS011;25589;51.552;13.424;2023-04-16T14:14:06;10.10;;;7.63;;
39918;SDS011;25589;51.552;13.424;2023-04-16T14:16:31;10.43;;;8.32;;
39918;SDS011;25589;51.552;13.424;2023-04-16T14:18:57;13.93;;;9.38;;
39918;SDS011;25589;51.552;13.424;2023-04-16T14:21:23;14.05;;;9.38;;
39918;SDS011;25589;51.552;13.424;2023-04-16T14:23:48;12.95;;;9.60;;
39918;SDS011;25589;51.552;13.424;2023-04-16T14:26:14;12.93;;;9.38;;
39918;SDS011;25589;51.552;13.424;2023-04-16T14:28:40;16.65;;;9.88;;
39918;SDS011;25589;51.552;13.424;2023-04-16T14:31:05;14.13;;;10.70;;